sensor_id;sensor_type;location;lat;lon;timestamp;P1;durP1;ratioP1;P2;durP2;ratioP2
73816;SDS011;62146;53.232;-1.304;2023-01-28T00:01:26;20.55;;;11.00;;
73816;SDS011;62146;53.232;-1.304;2023-01-28T00:03:53;21.23;;;10.85;;
73816;SDS011;62146;53.232;-1.304;2023-01-28T00:06:20;23.07;;;10.83;;
73816;SDS011;62146;53.232;-1.304;2023-01-28T00:08:47;23.58;;;11.40;;
73816;SDS011;62146;53.232;-1.304;2023-01-28T00:11:15;20.60;;;11.02;;
73816;SDS011;62146;53.232;-1.304;2023-01-28T00:13:41;21.15;;;11.07;;
73816;SDS011;62146;53.232;-1.304;2023-01-28T00:16:08;19.85;;;10.95;;
73816;SDS011;62146;53.232;-1.304;2023-01-28T00:18:35;22.60;;;11.80;;
73816;SDS011;62146;53.232;-1.304;2023-01-28T00:23:32;21.02;;;11.18;;
73816;SDS011;62146;53.232;-1.304;2023-01-28T00:26:01;23.90;;;11.50;;
73816;SDS011;62146;53.232;-1.304;2023-01-28T00:28:30;19.52;;;10.98;;
73816;SDS011;62146;53.232;-1.304;2023-01-28T00:30:56;20.70;;;11.50;;
73816;SDS011;62146;53.232;-1.304;2023-01-28T00:33:23;23.20;;;11.32;;
73816;SDS011;62146;53.232;-1.304;2023-01-28T00:36:00;21.30;;;11.88;;
73816;SDS011;62146;53.232;-1.304;2023-01-28T00:38:27;22.77;;;11.30;;
73816;SDS011;62146;53.232;-1.304;2023-01-28T00:40:54;21.05;;;11.55;;
73816;SDS011;62146;53.232;-1.304;2023-01-28T00:43:21;19.80;;;10.83;;
73816;SDS011;62146;53.232;-1.304;2023-01-28T00:45:48;20.50;;;11.43;;
73816;SDS011;62146;53.232;-1.304;2023-01-28T00:48:15;21.30;;;11.60;;
73816;SDS011;62146;53.232;-1.304;2023-01-28T00:50:43;21.15;;;11.43;;
73816;SDS011;62146;53.232;-1.304;2023-01-28T00:53:10;21.80;;;11.88;;
73816;SDS011;62146;53.232;-1.304;2023-01-28T00:55:37;19.50;;;11.50;;
73816;SDS011;62146;53.232;-1.304;2023-01-28T00:58:04;20.83;;;10.43;;
73816;SDS011;62146;53.232;-1.304;2023-01-28T01:00:30;21.00;;;11.77;;
73816;SDS011;62146;53.232;-1.304;2023-01-28T01:02:57;20.70;;;11.48;;
73816;SDS011;62146;53.232;-1.304;2023-01-28T01:05:24;19.80;;;10.38;;
73816;SDS011;62146;53.232;-1.304;2023-01-28T01:07:51;20.60;;;11.10;;
73816;SDS011;62146;53.232;-1.304;2023-01-28T01:10:18;20.20;;;10.68;;
73816;SDS011;62146;53.232;-1.304;2023-01-28T01:12:48;20.52;;;11.60;;
73816;SDS011;62146;53.232;-1.304;2023-01-28T01:15:15;22.55;;;11.20;;
73816;SDS011;62146;53.232;-1.304;2023-01-28T01:17:44;20.63;;;10.35;;
73816;SDS011;62146;53.232;-1.304;2023-01-28T01:20:14;20.07;;;11.13;;
73816;SDS011;62146;53.232;-1.304;2023-01-28T01:22:49;20.30;;;10.70;;
73816;SDS011;62146;53.232;-1.304;2023-01-28T01:25:16;20.13;;;10.77;;
73816;SDS011;62146;53.232;-1.304;2023-01-28T01:27:43;21.10;;;10.65;;
73816;SDS011;62146;53.232;-1.304;2023-01-28T01:30:14;19.25;;;9.95;;
73816;SDS011;62146;53.232;-1.304;2023-01-28T01:32:42;16.97;;;9.13;;
73816;SDS011;62146;53.232;-1.304;2023-01-28T01:35:09;19.45;;;10.68;;
73816;SDS011;62146;53.232;-1.304;2023-01-28T01:37:36;14.60;;;8.90;;
73816;SDS011;62146;53.232;-1.304;2023-01-28T01:40:03;15.63;;;8.43;;
73816;SDS011;62146;53.232;-1.304;2023-01-28T01:42:33;17.55;;;9.18;;
73816;SDS011;62146;53.232;-1.304;2023-01-28T01:47:40;16.30;;;8.13;;
73816;SDS011;62146;53.232;-1.304;2023-01-28T01:53:16;16.77;;;8.27;;
73816;SDS011;62146;53.232;-1.304;2023-01-28T01:55:46;13.65;;;7.22;;
73816;SDS011;62146;53.232;-1.304;2023-01-28T01:58:15;14.53;;;7.43;;
73816;SDS011;62146;53.232;-1.304;2023-01-28T02:00:45;12.63;;;7.03;;
73816;SDS011;62146;53.232;-1.304;2023-01-28T02:03:11;13.27;;;6.93;;
73816;SDS011;62146;53.232;-1.304;2023-01-28T02:05:39;12.88;;;7.07;;
73816;SDS011;62146;53.232;-1.304;2023-01-28T02:08:05;13.88;;;7.38;;
73816;SDS011;62146;53.232;-1.304;2023-01-28T02:13:23;11.95;;;6.70;;
73816;SDS011;62146;53.232;-1.304;2023-01-28T02:15:54;12.05;;;6.90;;
73816;SDS011;62146;53.232;-1.304;2023-01-28T02:18:22;14.38;;;6.82;;
73816;SDS011;62146;53.232;-1.304;2023-01-28T02:21:01;12.57;;;6.47;;
73816;SDS011;62146;53.232;-1.304;2023-01-28T02:28:46;11.60;;;6.20;;
73816;SDS011;62146;53.232;-1.304;2023-01-28T02:31:16;10.95;;;5.68;;
73816;SDS011;62146;53.232;-1.304;2023-01-28T02:34:06;12.95;;;6.28;;
73816;SDS011;62146;53.232;-1.304;2023-01-28T02:36:57;11.27;;;5.70;;
73816;SDS011;62146;53.232;-1.304;2023-01-28T02:39:29;10.68;;;5.28;;
73816;SDS011;62146;53.232;-1.304;2023-01-28T02:42:01;10.40;;;5.60;;
73816;SDS011;62146;53.232;-1.304;2023-01-28T02:44:32;10.77;;;5.55;;
73816;SDS011;62146;53.232;-1.304;2023-01-28T02:46:58;10.23;;;5.60;;
73816;SDS011;62146;53.232;-1.304;2023-01-28T02:49:45;12.37;;;6.13;;
73816;SDS011;62146;53.232;-1.304;2023-01-28T02:52:21;11.30;;;5.70;;
73816;SDS011;62146;53.232;-1.304;2023-01-28T03:03:29;10.90;;;5.00;;
73816;SDS011;62146;53.232;-1.304;2023-01-28T03:06:06;11.75;;;6.05;;
73816;SDS011;62146;53.232;-1.304;2023-01-28T03:11:26;11.43;;;5.95;;
73816;SDS011;62146;53.232;-1.304;2023-01-28T03:14:15;10.00;;;5.65;;
73816;SDS011;62146;53.232;-1.304;2023-01-28T03:17:03;10.03;;;5.30;;
73816;SDS011;62146;53.232;-1.304;2023-01-28T03:19:52;11.32;;;6.00;;
73816;SDS011;62146;53.232;-1.304;2023-01-28T03:22:38;9.88;;;6.25;;
73816;SDS011;62146;53.232;-1.304;2023-01-28T03:25:28;11.13;;;6.07;;
73816;SDS011;62146;53.232;-1.304;2023-01-28T03:28:15;10.68;;;5.57;;
73816;SDS011;62146;53.232;-1.304;2023-01-28T03:31:05;10.53;;;5.73;;
73816;SDS011;62146;53.232;-1.304;2023-01-28T03:33:53;14.45;;;6.10;;
73816;SDS011;62146;53.232;-1.304;2023-01-28T03:36:40;11.10;;;5.45;;
73816;SDS011;62146;53.232;-1.304;2023-01-28T03:39:16;10.40;;;5.75;;
73816;SDS011;62146;53.232;-1.304;2023-01-28T03:42:00;12.35;;;5.82;;
73816;SDS011;62146;53.232;-1.304;2023-01-28T03:44:29;11.50;;;5.83;;
73816;SDS011;62146;53.232;-1.304;2023-01-28T03:47:15;10.52;;;5.85;;
73816;SDS011;62146;53.232;-1.304;2023-01-28T03:49:43;11.10;;;6.07;;
73816;SDS011;62146;53.232;-1.304;2023-01-28T03:52:11;11.35;;;6.20;;
73816;SDS011;62146;53.232;-1.304;2023-01-28T03:54:38;11.18;;;6.03;;
73816;SDS011;62146;53.232;-1.304;2023-01-28T03:57:05;12.13;;;6.10;;
73816;SDS011;62146;53.232;-1.304;2023-01-28T03:59:32;11.27;;;6.15;;
73816;SDS011;62146;53.232;-1.304;2023-01-28T04:01:59;11.02;;;6.13;;
73816;SDS011;62146;53.232;-1.304;2023-01-28T04:04:29;11.90;;;6.72;;
73816;SDS011;62146;53.232;-1.304;2023-01-28T04:06:57;11.70;;;6.35;;
73816;SDS011;62146;53.232;-1.304;2023-01-28T04:09:24;12.70;;;6.27;;
73816;SDS011;62146;53.232;-1.304;2023-01-28T04:11:51;10.85;;;6.30;;
73816;SDS011;62146;53.232;-1.304;2023-01-28T04:14:17;12.35;;;6.78;;
73816;SDS011;62146;53.232;-1.304;2023-01-28T04:16:44;10.88;;;5.80;;
73816;SDS011;62146;53.232;-1.304;2023-01-28T04:19:11;12.98;;;7.18;;
73816;SDS011;62146;53.232;-1.304;2023-01-28T04:21:39;12.90;;;6.43;;
73816;SDS011;62146;53.232;-1.304;2023-01-28T04:24:06;13.85;;;6.10;;
73816;SDS011;62146;53.232;-1.304;2023-01-28T04:26:33;11.63;;;6.30;;
73816;SDS011;62146;53.232;-1.304;2023-01-28T04:28:59;11.63;;;6.40;;
73816;SDS011;62146;53.232;-1.304;2023-01-28T04:31:26;11.63;;;6.70;;
73816;SDS011;62146;53.232;-1.304;2023-01-28T04:33:52;11.43;;;6.40;;
73816;SDS011;62146;53.232;-1.304;2023-01-28T04:36:19;13.25;;;6.68;;
73816;SDS011;62146;53.232;-1.304;2023-01-28T04:38:46;11.63;;;6.60;;
73816;SDS011;62146;53.232;-1.304;2023-01-28T04:41:12;12.50;;;6.57;;
73816;SDS011;62146;53.232;-1.304;2023-01-28T04:43:39;12.50;;;6.75;;
73816;SDS011;62146;53.232;-1.304;2023-01-28T04:46:06;14.83;;;6.87;;
73816;SDS011;62146;53.232;-1.304;2023-01-28T04:48:32;12.35;;;6.85;;
73816;SDS011;62146;53.232;-1.304;2023-01-28T04:51:00;13.65;;;7.32;;
73816;SDS011;62146;53.232;-1.304;2023-01-28T04:53:26;14.50;;;7.22;;
73816;SDS011;62146;53.232;-1.304;2023-01-28T04:55:53;14.65;;;7.40;;
73816;SDS011;62146;53.232;-1.304;2023-01-28T04:58:19;15.00;;;7.03;;
73816;SDS011;62146;53.232;-1.304;2023-01-28T05:00:46;14.77;;;7.30;;
73816;SDS011;62146;53.232;-1.304;2023-01-28T05:03:19;14.75;;;7.45;;
73816;SDS011;62146;53.232;-1.304;2023-01-28T05:05:45;13.48;;;7.55;;
73816;SDS011;62146;53.232;-1.304;2023-01-28T05:08:12;19.23;;;7.90;;
73816;SDS011;62146;53.232;-1.304;2023-01-28T05:10:38;15.70;;;8.17;;
73816;SDS011;62146;53.232;-1.304;2023-01-28T05:13:05;14.57;;;7.43;;
73816;SDS011;62146;53.232;-1.304;2023-01-28T05:15:32;19.73;;;8.50;;
73816;SDS011;62146;53.232;-1.304;2023-01-28T05:17:58;16.00;;;8.30;;
73816;SDS011;62146;53.232;-1.304;2023-01-28T05:20:25;16.67;;;8.05;;
73816;SDS011;62146;53.232;-1.304;2023-01-28T05:22:51;15.27;;;8.17;;
73816;SDS011;62146;53.232;-1.304;2023-01-28T05:25:18;18.17;;;8.23;;
73816;SDS011;62146;53.232;-1.304;2023-01-28T05:27:49;17.52;;;8.07;;
73816;SDS011;62146;53.232;-1.304;2023-01-28T05:30:17;15.13;;;7.90;;
73816;SDS011;62146;53.232;-1.304;2023-01-28T05:32:44;17.55;;;8.90;;
73816;SDS011;62146;53.232;-1.304;2023-01-28T05:35:11;17.00;;;8.40;;
73816;SDS011;62146;53.232;-1.304;2023-01-28T05:37:38;16.70;;;8.73;;
73816;SDS011;62146;53.232;-1.304;2023-01-28T05:40:04;17.30;;;8.48;;
73816;SDS011;62146;53.232;-1.304;2023-01-28T05:42:31;18.52;;;9.23;;
73816;SDS011;62146;53.232;-1.304;2023-01-28T05:44:58;20.52;;;8.98;;
73816;SDS011;62146;53.232;-1.304;2023-01-28T05:47:26;16.93;;;8.43;;
73816;SDS011;62146;53.232;-1.304;2023-01-28T05:49:52;17.60;;;9.02;;
73816;SDS011;62146;53.232;-1.304;2023-01-28T05:52:19;17.80;;;9.35;;
73816;SDS011;62146;53.232;-1.304;2023-01-28T05:54:45;16.40;;;9.55;;
73816;SDS011;62146;53.232;-1.304;2023-01-28T05:57:12;19.35;;;9.10;;
73816;SDS011;62146;53.232;-1.304;2023-01-28T05:59:39;15.00;;;8.13;;
73816;SDS011;62146;53.232;-1.304;2023-01-28T06:02:05;18.42;;;9.48;;
73816;SDS011;62146;53.232;-1.304;2023-01-28T06:04:32;20.70;;;9.68;;
73816;SDS011;62146;53.232;-1.304;2023-01-28T06:06:59;17.90;;;9.90;;
73816;SDS011;62146;53.232;-1.304;2023-01-28T06:09:25;18.40;;;9.82;;
73816;SDS011;62146;53.232;-1.304;2023-01-28T06:11:52;18.77;;;9.27;;
73816;SDS011;62146;53.232;-1.304;2023-01-28T06:14:18;18.38;;;9.57;;
73816;SDS011;62146;53.232;-1.304;2023-01-28T06:16:45;18.58;;;10.02;;
73816;SDS011;62146;53.232;-1.304;2023-01-28T06:19:11;16.45;;;9.32;;
73816;SDS011;62146;53.232;-1.304;2023-01-28T06:21:38;23.27;;;9.73;;
73816;SDS011;62146;53.232;-1.304;2023-01-28T06:24:05;18.30;;;10.13;;
73816;SDS011;62146;53.232;-1.304;2023-01-28T06:26:31;17.13;;;9.05;;
73816;SDS011;62146;53.232;-1.304;2023-01-28T06:28:58;17.65;;;9.60;;
73816;SDS011;62146;53.232;-1.304;2023-01-28T06:31:25;21.08;;;10.02;;
73816;SDS011;62146;53.232;-1.304;2023-01-28T06:33:51;16.10;;;9.02;;
73816;SDS011;62146;53.232;-1.304;2023-01-28T06:36:18;18.23;;;9.30;;
73816;SDS011;62146;53.232;-1.304;2023-01-28T06:38:44;17.95;;;9.57;;
73816;SDS011;62146;53.232;-1.304;2023-01-28T06:41:11;20.02;;;9.70;;
73816;SDS011;62146;53.232;-1.304;2023-01-28T06:43:38;16.48;;;8.90;;
73816;SDS011;62146;53.232;-1.304;2023-01-28T06:46:04;17.42;;;9.68;;
73816;SDS011;62146;53.232;-1.304;2023-01-28T06:48:31;19.27;;;9.13;;
73816;SDS011;62146;53.232;-1.304;2023-01-28T06:50:58;17.75;;;8.82;;
73816;SDS011;62146;53.232;-1.304;2023-01-28T06:53:24;15.98;;;8.70;;
73816;SDS011;62146;53.232;-1.304;2023-01-28T06:55:51;18.67;;;10.13;;
73816;SDS011;62146;53.232;-1.304;2023-01-28T06:58:17;17.67;;;9.40;;
73816;SDS011;62146;53.232;-1.304;2023-01-28T07:00:44;20.20;;;9.37;;
73816;SDS011;62146;53.232;-1.304;2023-01-28T07:03:11;19.88;;;9.23;;
73816;SDS011;62146;53.232;-1.304;2023-01-28T07:05:37;17.45;;;9.38;;
73816;SDS011;62146;53.232;-1.304;2023-01-28T07:08:04;17.95;;;9.48;;
73816;SDS011;62146;53.232;-1.304;2023-01-28T07:10:32;18.45;;;9.45;;
73816;SDS011;62146;53.232;-1.304;2023-01-28T07:12:58;19.10;;;9.13;;
73816;SDS011;62146;53.232;-1.304;2023-01-28T07:15:25;16.83;;;9.10;;
73816;SDS011;62146;53.232;-1.304;2023-01-28T07:17:51;16.88;;;8.77;;
73816;SDS011;62146;53.232;-1.304;2023-01-28T07:20:18;17.92;;;8.55;;
73816;SDS011;62146;53.232;-1.304;2023-01-28T07:22:45;15.57;;;9.30;;
73816;SDS011;62146;53.232;-1.304;2023-01-28T07:25:12;16.03;;;9.13;;
73816;SDS011;62146;53.232;-1.304;2023-01-28T07:27:49;14.73;;;7.90;;
73816;SDS011;62146;53.232;-1.304;2023-01-28T07:30:18;17.02;;;9.52;;
73816;SDS011;62146;53.232;-1.304;2023-01-28T07:32:45;14.60;;;7.60;;
73816;SDS011;62146;53.232;-1.304;2023-01-28T07:35:12;18.70;;;8.38;;
73816;SDS011;62146;53.232;-1.304;2023-01-28T07:37:39;16.27;;;8.10;;
73816;SDS011;62146;53.232;-1.304;2023-01-28T07:40:06;15.93;;;7.80;;
73816;SDS011;62146;53.232;-1.304;2023-01-28T07:42:33;16.55;;;8.45;;
73816;SDS011;62146;53.232;-1.304;2023-01-28T07:45:00;17.67;;;8.35;;
73816;SDS011;62146;53.232;-1.304;2023-01-28T07:47:26;16.73;;;8.07;;
73816;SDS011;62146;53.232;-1.304;2023-01-28T07:49:53;16.47;;;8.03;;
73816;SDS011;62146;53.232;-1.304;2023-01-28T07:52:20;17.15;;;8.52;;
73816;SDS011;62146;53.232;-1.304;2023-01-28T07:54:46;14.40;;;7.47;;
73816;SDS011;62146;53.232;-1.304;2023-01-28T07:57:13;14.18;;;7.63;;
73816;SDS011;62146;53.232;-1.304;2023-01-28T07:59:40;15.27;;;7.95;;
73816;SDS011;62146;53.232;-1.304;2023-01-28T08:02:08;15.43;;;7.73;;
73816;SDS011;62146;53.232;-1.304;2023-01-28T08:04:37;14.90;;;8.30;;
73816;SDS011;62146;53.232;-1.304;2023-01-28T08:07:05;15.00;;;7.55;;
73816;SDS011;62146;53.232;-1.304;2023-01-28T08:09:33;14.90;;;8.20;;
73816;SDS011;62146;53.232;-1.304;2023-01-28T08:12:00;16.55;;;7.22;;
73816;SDS011;62146;53.232;-1.304;2023-01-28T08:14:27;14.33;;;8.00;;
73816;SDS011;62146;53.232;-1.304;2023-01-28T08:16:54;14.07;;;7.57;;
73816;SDS011;62146;53.232;-1.304;2023-01-28T08:19:21;14.90;;;7.85;;
73816;SDS011;62146;53.232;-1.304;2023-01-28T08:21:47;16.30;;;7.95;;
73816;SDS011;62146;53.232;-1.304;2023-01-28T08:24:14;14.65;;;8.00;;
73816;SDS011;62146;53.232;-1.304;2023-01-28T08:26:40;14.70;;;8.30;;
73816;SDS011;62146;53.232;-1.304;2023-01-28T08:29:07;15.98;;;7.53;;
73816;SDS011;62146;53.232;-1.304;2023-01-28T08:31:34;16.20;;;8.30;;
73816;SDS011;62146;53.232;-1.304;2023-01-28T08:34:01;17.25;;;8.30;;
73816;SDS011;62146;53.232;-1.304;2023-01-28T08:36:27;13.80;;;7.78;;
73816;SDS011;62146;53.232;-1.304;2023-01-28T08:38:54;15.60;;;7.67;;
73816;SDS011;62146;53.232;-1.304;2023-01-28T08:41:21;14.35;;;7.70;;
73816;SDS011;62146;53.232;-1.304;2023-01-28T08:43:48;15.63;;;8.07;;
73816;SDS011;62146;53.232;-1.304;2023-01-28T08:46:15;14.95;;;7.43;;
73816;SDS011;62146;53.232;-1.304;2023-01-28T08:48:42;14.77;;;7.50;;
73816;SDS011;62146;53.232;-1.304;2023-01-28T08:51:11;14.67;;;7.10;;
73816;SDS011;62146;53.232;-1.304;2023-01-28T08:53:38;15.00;;;7.45;;
73816;SDS011;62146;53.232;-1.304;2023-01-28T08:56:04;15.52;;;7.63;;
73816;SDS011;62146;53.232;-1.304;2023-01-28T08:58:31;15.77;;;7.65;;
73816;SDS011;62146;53.232;-1.304;2023-01-28T09:01:02;16.98;;;7.10;;
73816;SDS011;62146;53.232;-1.304;2023-01-28T09:03:30;13.20;;;6.87;;
73816;SDS011;62146;53.232;-1.304;2023-01-28T09:06:03;15.68;;;7.47;;
73816;SDS011;62146;53.232;-1.304;2023-01-28T09:08:30;15.30;;;7.95;;
73816;SDS011;62146;53.232;-1.304;2023-01-28T09:10:58;16.25;;;7.93;;
73816;SDS011;62146;53.232;-1.304;2023-01-28T09:13:25;16.15;;;7.55;;
73816;SDS011;62146;53.232;-1.304;2023-01-28T09:15:52;15.43;;;7.97;;
73816;SDS011;62146;53.232;-1.304;2023-01-28T09:18:19;14.18;;;7.15;;
73816;SDS011;62146;53.232;-1.304;2023-01-28T09:20:46;14.98;;;7.15;;
73816;SDS011;62146;53.232;-1.304;2023-01-28T09:23:13;13.07;;;7.63;;
73816;SDS011;62146;53.232;-1.304;2023-01-28T09:25:39;15.52;;;7.68;;
73816;SDS011;62146;53.232;-1.304;2023-01-28T09:28:06;15.90;;;7.50;;
73816;SDS011;62146;53.232;-1.304;2023-01-28T09:30:33;15.18;;;8.15;;
73816;SDS011;62146;53.232;-1.304;2023-01-28T09:33:02;15.48;;;7.30;;
73816;SDS011;62146;53.232;-1.304;2023-01-28T09:35:29;15.00;;;8.02;;
73816;SDS011;62146;53.232;-1.304;2023-01-28T09:37:56;17.15;;;7.93;;
73816;SDS011;62146;53.232;-1.304;2023-01-28T09:45:43;18.17;;;8.68;;
73816;SDS011;62146;53.232;-1.304;2023-01-28T09:48:13;17.55;;;7.80;;
73816;SDS011;62146;53.232;-1.304;2023-01-28T09:50:44;15.60;;;7.93;;
73816;SDS011;62146;53.232;-1.304;2023-01-28T09:53:34;17.50;;;7.83;;
73816;SDS011;62146;53.232;-1.304;2023-01-28T09:56:15;13.93;;;7.35;;
73816;SDS011;62146;53.232;-1.304;2023-01-28T09:58:50;15.65;;;7.60;;
73816;SDS011;62146;53.232;-1.304;2023-01-28T10:03:54;17.63;;;7.50;;
73816;SDS011;62146;53.232;-1.304;2023-01-28T10:06:27;14.87;;;7.40;;
73816;SDS011;62146;53.232;-1.304;2023-01-28T10:18:44;17.30;;;7.78;;
73816;SDS011;62146;53.232;-1.304;2023-01-28T10:21:19;17.30;;;8.13;;
73816;SDS011;62146;53.232;-1.304;2023-01-28T10:23:56;18.10;;;8.25;;
73816;SDS011;62146;53.232;-1.304;2023-01-28T10:26:38;15.25;;;7.90;;
73816;SDS011;62146;53.232;-1.304;2023-01-28T10:29:18;19.23;;;8.15;;
73816;SDS011;62146;53.232;-1.304;2023-01-28T10:31:53;15.73;;;7.68;;
73816;SDS011;62146;53.232;-1.304;2023-01-28T10:34:21;16.07;;;7.90;;
73816;SDS011;62146;53.232;-1.304;2023-01-28T10:36:48;16.42;;;8.05;;
73816;SDS011;62146;53.232;-1.304;2023-01-28T10:39:17;15.10;;;8.15;;
73816;SDS011;62146;53.232;-1.304;2023-01-28T10:41:47;18.10;;;7.93;;
73816;SDS011;62146;53.232;-1.304;2023-01-28T10:46:56;16.80;;;7.57;;
73816;SDS011;62146;53.232;-1.304;2023-01-28T10:49:27;14.43;;;8.00;;
73816;SDS011;62146;53.232;-1.304;2023-01-28T10:51:56;15.88;;;8.00;;
73816;SDS011;62146;53.232;-1.304;2023-01-28T10:54:25;15.43;;;7.78;;
73816;SDS011;62146;53.232;-1.304;2023-01-28T10:56:54;15.95;;;8.00;;
73816;SDS011;62146;53.232;-1.304;2023-01-28T10:59:28;15.93;;;8.20;;
73816;SDS011;62146;53.232;-1.304;2023-01-28T11:01:57;15.00;;;7.65;;
73816;SDS011;62146;53.232;-1.304;2023-01-28T11:04:30;14.88;;;8.07;;
73816;SDS011;62146;53.232;-1.304;2023-01-28T11:07:02;15.40;;;7.45;;
73816;SDS011;62146;53.232;-1.304;2023-01-28T11:09:43;15.55;;;7.43;;
73816;SDS011;62146;53.232;-1.304;2023-01-28T11:12:25;13.17;;;7.30;;
73816;SDS011;62146;53.232;-1.304;2023-01-28T11:14:57;15.68;;;7.50;;
73816;SDS011;62146;53.232;-1.304;2023-01-28T11:17:26;13.30;;;7.32;;
73816;SDS011;62146;53.232;-1.304;2023-01-28T11:19:57;14.20;;;7.35;;
73816;SDS011;62146;53.232;-1.304;2023-01-28T11:25:02;13.83;;;7.13;;
73816;SDS011;62146;53.232;-1.304;2023-01-28T11:27:39;14.88;;;7.05;;
73816;SDS011;62146;53.232;-1.304;2023-01-28T11:30:15;13.85;;;7.25;;
73816;SDS011;62146;53.232;-1.304;2023-01-28T11:32:51;14.85;;;7.25;;
73816;SDS011;62146;53.232;-1.304;2023-01-28T11:35:23;15.05;;;6.80;;
73816;SDS011;62146;53.232;-1.304;2023-01-28T11:37:56;14.50;;;7.40;;
73816;SDS011;62146;53.232;-1.304;2023-01-28T11:40:24;13.88;;;6.57;;
73816;SDS011;62146;53.232;-1.304;2023-01-28T11:42:51;15.68;;;7.20;;
73816;SDS011;62146;53.232;-1.304;2023-01-28T11:45:25;12.43;;;6.03;;
73816;SDS011;62146;53.232;-1.304;2023-01-28T11:48:02;11.80;;;6.05;;
73816;SDS011;62146;53.232;-1.304;2023-01-28T11:50:53;11.27;;;5.60;;
73816;SDS011;62146;53.232;-1.304;2023-01-28T12:08:26;9.40;;;4.95;;
73816;SDS011;62146;53.232;-1.304;2023-01-28T12:11:07;11.32;;;5.60;;
73816;SDS011;62146;53.232;-1.304;2023-01-28T12:17:04;11.57;;;5.30;;
73816;SDS011;62146;53.232;-1.304;2023-01-28T12:19:47;9.43;;;4.97;;
73816;SDS011;62146;53.232;-1.304;2023-01-28T12:30:59;9.73;;;4.88;;
73816;SDS011;62146;53.232;-1.304;2023-01-28T12:33:35;9.53;;;4.87;;
73816;SDS011;62146;53.232;-1.304;2023-01-28T12:36:18;12.95;;;4.55;;
73816;SDS011;62146;53.232;-1.304;2023-01-28T12:41:38;7.45;;;4.47;;
73816;SDS011;62146;53.232;-1.304;2023-01-28T12:44:13;7.43;;;4.38;;
73816;SDS011;62146;53.232;-1.304;2023-01-28T12:46:47;8.10;;;4.03;;
73816;SDS011;62146;53.232;-1.304;2023-01-28T12:54:32;8.15;;;4.00;;
73816;SDS011;62146;53.232;-1.304;2023-01-28T12:57:03;8.80;;;4.40;;
73816;SDS011;62146;53.232;-1.304;2023-01-28T12:59:32;9.10;;;3.70;;
73816;SDS011;62146;53.232;-1.304;2023-01-28T13:04:46;9.38;;;3.95;;
73816;SDS011;62146;53.232;-1.304;2023-01-28T13:07:31;7.85;;;3.20;;
73816;SDS011;62146;53.232;-1.304;2023-01-28T13:13:01;9.03;;;3.90;;
73816;SDS011;62146;53.232;-1.304;2023-01-28T13:15:29;8.30;;;3.83;;
73816;SDS011;62146;53.232;-1.304;2023-01-28T13:18:04;7.82;;;3.90;;
73816;SDS011;62146;53.232;-1.304;2023-01-28T13:20:35;8.27;;;3.80;;
73816;SDS011;62146;53.232;-1.304;2023-01-28T13:23:04;8.18;;;3.50;;
73816;SDS011;62146;53.232;-1.304;2023-01-28T13:25:48;8.63;;;3.50;;
73816;SDS011;62146;53.232;-1.304;2023-01-28T13:28:29;7.63;;;3.50;;
73816;SDS011;62146;53.232;-1.304;2023-01-28T13:31:02;7.95;;;3.30;;
73816;SDS011;62146;53.232;-1.304;2023-01-28T13:33:34;7.00;;;3.40;;
73816;SDS011;62146;53.232;-1.304;2023-01-28T13:36:36;5.40;;;2.72;;
73816;SDS011;62146;53.232;-1.304;2023-01-28T13:39:04;7.10;;;3.50;;
73816;SDS011;62146;53.232;-1.304;2023-01-28T13:41:45;7.15;;;3.08;;
73816;SDS011;62146;53.232;-1.304;2023-01-28T13:44:30;7.35;;;2.90;;
73816;SDS011;62146;53.232;-1.304;2023-01-28T13:47:44;5.80;;;2.92;;
73816;SDS011;62146;53.232;-1.304;2023-01-28T13:52:48;5.83;;;2.70;;
73816;SDS011;62146;53.232;-1.304;2023-01-28T13:55:26;5.47;;;2.50;;
73816;SDS011;62146;53.232;-1.304;2023-01-28T14:06:58;5.20;;;2.50;;
73816;SDS011;62146;53.232;-1.304;2023-01-28T14:18:26;5.15;;;2.40;;
73816;SDS011;62146;53.232;-1.304;2023-01-28T14:21:01;5.87;;;2.30;;
73816;SDS011;62146;53.232;-1.304;2023-01-28T14:23:34;6.10;;;2.70;;
73816;SDS011;62146;53.232;-1.304;2023-01-28T14:29:04;5.07;;;2.20;;
73816;SDS011;62146;53.232;-1.304;2023-01-28T14:31:38;5.35;;;2.13;;
73816;SDS011;62146;53.232;-1.304;2023-01-28T14:37:08;6.82;;;2.42;;
73816;SDS011;62146;53.232;-1.304;2023-01-28T14:39:49;7.05;;;2.25;;
73816;SDS011;62146;53.232;-1.304;2023-01-28T14:42:29;7.00;;;2.55;;
73816;SDS011;62146;53.232;-1.304;2023-01-28T14:48:13;5.33;;;2.33;;
73816;SDS011;62146;53.232;-1.304;2023-01-28T14:51:01;6.15;;;2.40;;
73816;SDS011;62146;53.232;-1.304;2023-01-28T14:54:17;4.90;;;2.38;;
73816;SDS011;62146;53.232;-1.304;2023-01-28T14:59:37;5.28;;;2.42;;
73816;SDS011;62146;53.232;-1.304;2023-01-28T15:02:21;4.60;;;2.37;;
73816;SDS011;62146;53.232;-1.304;2023-01-28T15:04:52;6.45;;;2.63;;
73816;SDS011;62146;53.232;-1.304;2023-01-28T15:07:20;4.72;;;2.30;;
73816;SDS011;62146;53.232;-1.304;2023-01-28T15:10:00;4.85;;;2.50;;
73816;SDS011;62146;53.232;-1.304;2023-01-28T15:12:32;5.55;;;2.45;;
73816;SDS011;62146;53.232;-1.304;2023-01-28T15:15:13;5.20;;;2.50;;
73816;SDS011;62146;53.232;-1.304;2023-01-28T15:17:47;6.22;;;2.40;;
73816;SDS011;62146;53.232;-1.304;2023-01-28T15:20:18;4.90;;;2.40;;
73816;SDS011;62146;53.232;-1.304;2023-01-28T15:22:47;5.00;;;2.45;;
73816;SDS011;62146;53.232;-1.304;2023-01-28T15:25:17;5.50;;;2.20;;
73816;SDS011;62146;53.232;-1.304;2023-01-28T15:27:47;5.90;;;2.40;;
73816;SDS011;62146;53.232;-1.304;2023-01-28T15:30:17;4.75;;;2.50;;
73816;SDS011;62146;53.232;-1.304;2023-01-28T15:32:55;5.47;;;2.50;;
73816;SDS011;62146;53.232;-1.304;2023-01-28T15:35:32;4.90;;;2.50;;
73816;SDS011;62146;53.232;-1.304;2023-01-28T15:38:00;5.28;;;2.42;;
73816;SDS011;62146;53.232;-1.304;2023-01-28T15:40:27;5.83;;;2.70;;
73816;SDS011;62146;53.232;-1.304;2023-01-28T15:42:55;5.13;;;2.30;;
73816;SDS011;62146;53.232;-1.304;2023-01-28T15:45:24;5.15;;;2.65;;
73816;SDS011;62146;53.232;-1.304;2023-01-28T15:48:00;4.90;;;2.63;;
73816;SDS011;62146;53.232;-1.304;2023-01-28T15:50:31;5.25;;;2.30;;
73816;SDS011;62146;53.232;-1.304;2023-01-28T15:52:57;4.90;;;2.30;;
73816;SDS011;62146;53.232;-1.304;2023-01-28T15:57:51;4.63;;;2.53;;
73816;SDS011;62146;53.232;-1.304;2023-01-28T16:00:18;6.38;;;3.05;;
73816;SDS011;62146;53.232;-1.304;2023-01-28T16:02:49;6.97;;;2.50;;
73816;SDS011;62146;53.232;-1.304;2023-01-28T16:05:23;5.60;;;2.57;;
73816;SDS011;62146;53.232;-1.304;2023-01-28T16:07:56;5.95;;;2.35;;
73816;SDS011;62146;53.232;-1.304;2023-01-28T16:10:24;4.78;;;2.50;;
73816;SDS011;62146;53.232;-1.304;2023-01-28T16:12:55;4.93;;;2.47;;
73816;SDS011;62146;53.232;-1.304;2023-01-28T16:15:29;7.88;;;2.80;;
73816;SDS011;62146;53.232;-1.304;2023-01-28T16:17:56;6.77;;;2.43;;
73816;SDS011;62146;53.232;-1.304;2023-01-28T16:20:27;5.50;;;2.78;;
73816;SDS011;62146;53.232;-1.304;2023-01-28T16:22:59;5.97;;;2.88;;
73816;SDS011;62146;53.232;-1.304;2023-01-28T16:25:31;5.53;;;2.63;;
73816;SDS011;62146;53.232;-1.304;2023-01-28T16:28:02;5.90;;;2.60;;
73816;SDS011;62146;53.232;-1.304;2023-01-28T16:30:37;5.03;;;2.53;;
73816;SDS011;62146;53.232;-1.304;2023-01-28T16:33:04;5.75;;;2.83;;
73816;SDS011;62146;53.232;-1.304;2023-01-28T16:35:30;6.78;;;2.42;;
73816;SDS011;62146;53.232;-1.304;2023-01-28T16:38:17;5.40;;;2.75;;
73816;SDS011;62146;53.232;-1.304;2023-01-28T16:40:44;4.88;;;2.55;;
73816;SDS011;62146;53.232;-1.304;2023-01-28T16:43:12;5.80;;;2.80;;
73816;SDS011;62146;53.232;-1.304;2023-01-28T16:45:41;5.75;;;3.00;;
73816;SDS011;62146;53.232;-1.304;2023-01-28T16:48:08;6.10;;;2.90;;
73816;SDS011;62146;53.232;-1.304;2023-01-28T16:50:35;6.68;;;3.08;;